createdAt,value
2019-01-10T00:01:59.144Z,101660.55
2019-01-10T00:04:28.634Z,101665.45
2019-01-10T00:06:58.127Z,101665.56
2019-01-10T00:09:27.603Z,101670.48
2019-01-10T00:11:57.073Z,101670.66
2019-01-10T00:14:26.561Z,101670.59
2019-01-10T00:16:56.035Z,101677.09
2019-01-10T00:19:25.540Z,101681.95
2019-01-10T00:21:55.038Z,101676.23
2019-01-10T00:24:24.541Z,101676.98
2019-01-10T00:26:54.035Z,101679.23
2019-01-10T00:29:23.520Z,101680.28
2019-01-10T00:31:53.003Z,101686.90
2019-01-10T00:34:22.488Z,101684.85
2019-01-10T00:36:51.974Z,101683.77
2019-01-10T00:39:21.454Z,101687.06
2019-01-10T00:41:50.938Z,101685.83
2019-01-10T00:44:20.723Z,101680.49
2019-01-10T00:46:50.197Z,101674.76
2019-01-10T00:49:19.674Z,101677.28
2019-01-10T00:51:49.172Z,101681.73
2019-01-10T00:54:18.670Z,101679.56
2019-01-10T00:56:48.152Z,101682.19
2019-01-10T00:59:17.645Z,101679.07
2019-01-10T01:01:47.167Z,101678.90
2019-01-10T01:04:16.650Z,101676.59
2019-01-10T01:06:46.138Z,101671.32
2019-01-10T01:09:15.615Z,101680.83
2019-01-10T01:11:45.094Z,101693.16
2019-01-10T01:14:14.606Z,101696.26
2019-01-10T01:16:44.074Z,101697.41
2019-01-10T01:19:14.537Z,101702.56
2019-01-10T01:21:44.027Z,101706.07
2019-01-10T01:24:14.181Z,101716.41
2019-01-10T01:26:44.773Z,101722.83
2019-01-10T01:29:14.242Z,101717.55
2019-01-10T01:31:43.717Z,101720.23
2019-01-10T01:34:13.265Z,101727.42
2019-01-10T01:36:42.746Z,101736.66
2019-01-10T01:39:12.213Z,101741.83
2019-01-10T01:41:41.702Z,101745.02
2019-01-10T01:44:11.188Z,101752.88
2019-01-10T01:46:40.753Z,101747.43
2019-01-10T01:49:10.307Z,101752.69
2019-01-10T01:51:39.862Z,101754.23
2019-01-10T01:54:09.439Z,101765.82
2019-01-10T01:56:38.920Z,101763.18
2019-01-10T01:59:08.392Z,101764.34
2019-01-10T02:01:37.886Z,101763.24
2019-01-10T02:04:07.359Z,101764.44
2019-01-10T02:06:36.932Z,101768.63
2019-01-10T02:09:07.456Z,101774.84
2019-01-10T02:11:37.029Z,101777.54
2019-01-10T02:14:06.508Z,101774.17
2019-01-10T02:16:35.991Z,101777.38
2019-01-10T02:19:05.466Z,101784.58
2019-01-10T02:21:36.016Z,101783.75
2019-01-10T02:24:05.586Z,101777.31
2019-01-10T02:26:35.100Z,101781.78
2019-01-10T02:29:04.609Z,101788.38
2019-01-10T02:31:34.085Z,101794.14
2019-01-10T02:34:03.565Z,101792.60
2019-01-10T02:36:33.057Z,101800.85
2019-01-10T02:39:02.541Z,101806.89
2019-01-10T02:41:33.008Z,101815.95
2019-01-10T02:44:02.506Z,101818.20
2019-01-10T02:46:32.015Z,101811.11
2019-01-10T02:49:01.492Z,101815.00
2019-01-10T02:51:30.975Z,101823.24
2019-01-10T02:54:00.459Z,101819.34
2019-01-10T02:56:29.936Z,101830.33
2019-01-10T02:58:59.415Z,101835.00
2019-01-10T03:01:28.916Z,101830.53
2019-01-10T03:03:58.388Z,101828.11
2019-01-10T03:06:27.870Z,101829.86
2019-01-10T03:08:57.336Z,101818.50
2019-01-10T03:11:26.819Z,101826.47
2019-01-10T03:13:56.295Z,101819.84
2019-01-10T03:16:25.782Z,101819.27
2019-01-10T03:18:55.250Z,101820.53
2019-01-10T03:21:24.725Z,101816.35
2019-01-10T03:23:54.203Z,101824.02
2019-01-10T03:26:23.694Z,101815.95
2019-01-10T03:28:53.169Z,101815.84
2019-01-10T03:31:22.650Z,101818.37
2019-01-10T03:33:52.202Z,101823.14
2019-01-10T03:36:21.684Z,101825.46
2019-01-10T03:38:51.151Z,101821.38
2019-01-10T03:41:20.635Z,101823.25
2019-01-10T03:43:50.115Z,101824.30
2019-01-10T03:46:19.595Z,101826.83
2019-01-10T03:48:49.082Z,101826.34
2019-01-10T03:51:18.551Z,101825.56
2019-01-10T03:53:48.039Z,101829.47
2019-01-10T03:56:17.527Z,101828.48
2019-01-10T03:58:47.020Z,101829.56
2019-01-10T04:01:16.491Z,101825.28
2019-01-10T04:03:45.973Z,101824.30
2019-01-10T04:06:15.449Z,101822.37
2019-01-10T04:08:44.954Z,101830.94
2019-01-10T04:11:14.430Z,101825.77
2019-01-10T04:13:43.928Z,101827.14
2019-01-10T04:16:13.409Z,101829.56
2019-01-10T04:18:42.899Z,101835.48
2019-01-10T04:21:17.561Z,101827.63
2019-01-10T04:23:43.562Z,101832.38
2019-01-10T04:26:13.028Z,101833.73
2019-01-10T04:28:42.533Z,101832.57
2019-01-10T04:31:12.002Z,101838.72
2019-01-10T04:33:41.479Z,101830.92
2019-01-10T04:36:10.964Z,101828.99
2019-01-10T04:38:40.483Z,101834.81
2019-01-10T04:41:10.026Z,101831.41
2019-01-10T04:43:39.515Z,101832.17
2019-01-10T04:46:08.990Z,101831.41
2019-01-10T04:48:38.473Z,101831.62
2019-01-10T04:51:07.947Z,101828.22
2019-01-10T04:53:37.445Z,101822.67
2019-01-10T04:56:06.919Z,101832.00
2019-01-10T04:58:36.401Z,101833.72
2019-01-10T05:01:05.878Z,101840.44
2019-01-10T05:03:35.434Z,101839.77
2019-01-10T05:06:05.225Z,101839.67
2019-01-10T05:08:34.871Z,101839.00
2019-01-10T05:11:04.360Z,101832.57
2019-01-10T05:13:33.838Z,101832.40
2019-01-10T05:16:03.313Z,101828.30
2019-01-10T05:18:32.814Z,101837.34
2019-01-10T05:21:02.302Z,101833.93
2019-01-10T05:23:31.773Z,101834.60
2019-01-10T05:26:01.251Z,101840.15
2019-01-10T05:28:30.768Z,101842.02
2019-01-10T05:31:00.239Z,101846.47
2019-01-10T05:33:29.734Z,101846.96
2019-01-10T05:35:59.205Z,101846.06
2019-01-10T05:38:28.702Z,101847.83
2019-01-10T05:40:58.195Z,101857.35
2019-01-10T05:43:27.681Z,101849.98
2019-01-10T05:45:57.172Z,101852.59
2019-01-10T05:48:26.667Z,101857.54
2019-01-10T05:50:56.148Z,101855.50
2019-01-10T05:53:25.646Z,101856.09
2019-01-10T05:55:55.146Z,101856.97
2019-01-10T05:58:24.634Z,101859.09
2019-01-10T06:00:54.129Z,101859.22
2019-01-10T06:03:23.652Z,101864.92
2019-01-10T06:05:53.182Z,101866.77
2019-01-10T06:08:22.667Z,101869.52
2019-01-10T06:10:52.149Z,101875.22
2019-01-10T06:13:21.652Z,101870.45
2019-01-10T06:15:51.157Z,101875.61
2019-01-10T06:18:20.700Z,101881.05
2019-01-10T06:20:50.193Z,101888.06
2019-01-10T06:23:19.698Z,101895.33
2019-01-10T06:25:49.214Z,101892.14
2019-01-10T06:28:19.697Z,101888.64
2019-01-10T06:30:49.204Z,101899.92
2019-01-10T06:33:18.699Z,101895.65
2019-01-10T06:35:48.180Z,101903.22
2019-01-10T06:38:17.677Z,101909.35
2019-01-10T06:40:47.262Z,101910.80
2019-01-10T06:43:16.713Z,101907.59
2019-01-10T06:45:46.271Z,101913.13
2019-01-10T06:48:17.411Z,101908.48
2019-01-10T06:50:46.913Z,101914.52
2019-01-10T06:53:16.388Z,101916.73
2019-01-10T06:55:46.080Z,101922.20
2019-01-10T06:58:16.706Z,101925.89
2019-01-10T07:00:46.204Z,101925.89
2019-01-10T07:03:15.696Z,101920.91
2019-01-10T07:05:45.188Z,101930.95
2019-01-10T07:08:15.925Z,101932.86
2019-01-10T07:10:45.352Z,101938.72
2019-01-10T07:13:14.840Z,101944.83
2019-01-10T07:15:44.328Z,101945.52
2019-01-10T07:18:13.803Z,101955.13
2019-01-10T07:20:43.284Z,101949.59
2019-01-10T07:23:12.768Z,101945.25
2019-01-10T07:25:42.335Z,101946.59
2019-01-10T07:28:30.878Z,101949.22
2019-01-10T07:31:01.152Z,101957.50
2019-01-10T07:33:32.178Z,101957.08
2019-01-10T07:36:01.950Z,101954.55
2019-01-10T07:38:31.424Z,101960.69
2019-01-10T07:41:00.910Z,101959.42
2019-01-10T07:43:30.391Z,101960.20
2019-01-10T07:46:05.033Z,101961.37
2019-01-10T07:48:34.542Z,101959.13
2019-01-10T07:51:04.107Z,101958.47
2019-01-10T07:53:33.662Z,101958.67
2019-01-10T07:56:03.160Z,101963.42
2019-01-10T07:58:32.633Z,101967.69
2019-01-10T08:01:02.195Z,101963.60
2019-01-10T08:03:31.675Z,101962.05
2019-01-10T08:06:01.163Z,101970.89
2019-01-10T08:08:30.638Z,101969.73
2019-01-10T08:11:00.122Z,101972.85
2019-01-10T08:13:29.586Z,101976.16
2019-01-10T08:15:59.144Z,101971.86
2019-01-10T08:18:28.727Z,101975.27
2019-01-10T08:20:58.215Z,101980.03
2019-01-10T08:23:27.693Z,101982.27
2019-01-10T08:25:57.177Z,101984.41
2019-01-10T08:28:26.747Z,101990.62
2019-01-10T08:30:56.236Z,101995.48
2019-01-10T08:33:25.741Z,102003.34
2019-01-10T08:35:56.054Z,101998.98
2019-01-10T08:38:25.544Z,102005.02
2019-01-10T08:40:55.032Z,101999.69
2019-01-10T08:43:24.539Z,101995.89
2019-01-10T08:45:54.053Z,101997.95
2019-01-10T08:48:23.564Z,102002.58
2019-01-10T08:50:53.031Z,102008.90
2019-01-10T08:53:22.645Z,102011.13
2019-01-10T08:55:52.147Z,102020.59
2019-01-10T08:58:21.658Z,102019.81
2019-01-10T09:00:51.167Z,102012.78
2019-01-10T09:03:20.665Z,102016.91
2019-01-10T09:05:50.140Z,102015.64
2019-01-10T09:08:19.622Z,102027.00
2019-01-10T09:10:49.907Z,102016.02
2019-01-10T09:13:19.398Z,102024.56
2019-01-10T09:15:48.914Z,102028.58
2019-01-10T09:18:18.423Z,102027.02
2019-01-10T09:20:47.914Z,102033.80
2019-01-10T09:23:17.424Z,102034.70
2019-01-10T09:25:47.019Z,102035.10
2019-01-10T09:28:16.560Z,102032.59
2019-01-10T09:30:46.062Z,102039.86
2019-01-10T09:33:15.580Z,102039.64
2019-01-10T09:35:45.089Z,102036.95
2019-01-10T09:38:14.602Z,102049.96
2019-01-10T09:40:44.089Z,102045.41
2019-01-10T09:43:13.590Z,102046.20
2019-01-10T09:45:43.670Z,102047.37
2019-01-10T09:48:13.180Z,102056.33
2019-01-10T09:50:42.741Z,102045.91
2019-01-10T09:53:12.269Z,102044.78
2019-01-10T09:55:41.778Z,102050.23
2019-01-10T09:58:11.257Z,102048.20
2019-01-10T10:00:40.789Z,102043.73
2019-01-10T10:03:10.319Z,102047.03
2019-01-10T10:05:39.812Z,102045.38
2019-01-10T10:08:09.369Z,102055.12
2019-01-10T10:10:38.846Z,102053.35
2019-01-10T10:13:08.356Z,102052.67
2019-01-10T10:15:37.869Z,102052.06
2019-01-10T10:18:07.374Z,102051.02
2019-01-10T10:20:36.941Z,102055.59
2019-01-10T10:23:06.415Z,102055.48
2019-01-10T10:25:35.915Z,102053.45
2019-01-10T10:28:05.467Z,102063.30
2019-01-10T10:30:35.024Z,102064.53
2019-01-10T10:33:04.592Z,102059.47
2019-01-10T10:35:34.071Z,102059.78
2019-01-10T10:38:04.628Z,102067.08
2019-01-10T10:40:34.184Z,102062.51
2019-01-10T10:43:04.075Z,102073.79
2019-01-10T10:45:33.577Z,102069.66
2019-01-10T10:48:03.104Z,102068.05
2019-01-10T10:50:32.659Z,102065.70
2019-01-10T10:53:04.927Z,102062.64
2019-01-10T10:55:34.545Z,102061.48
2019-01-10T10:58:04.178Z,102061.23
2019-01-10T11:00:33.691Z,102055.68
2019-01-10T11:03:03.187Z,102058.02
2019-01-10T11:05:32.756Z,102059.09
2019-01-10T11:08:02.235Z,102058.66
2019-01-10T11:10:31.726Z,102052.66
2019-01-10T11:13:01.209Z,102051.39
2019-01-10T11:15:30.757Z,102051.91
2019-01-10T11:18:00.254Z,102049.45
2019-01-10T11:20:29.746Z,102047.41
2019-01-10T11:22:59.294Z,102044.99
2019-01-10T11:25:30.005Z,102045.73
2019-01-10T11:27:59.733Z,102036.20
2019-01-10T11:30:29.296Z,102039.91
2019-01-10T11:32:58.773Z,102032.97
2019-01-10T11:35:28.265Z,102028.78
2019-01-10T11:37:58.850Z,102028.50
2019-01-10T11:40:28.354Z,102028.68
2019-01-10T11:42:57.846Z,102024.95
2019-01-10T11:45:28.153Z,102019.33
2019-01-10T11:47:57.767Z,102018.43
2019-01-10T11:50:27.258Z,102014.20
2019-01-10T11:52:56.728Z,102017.70
2019-01-10T11:55:26.243Z,102017.88
2019-01-10T11:57:55.738Z,102008.94
2019-01-10T12:00:30.343Z,102009.72
2019-01-10T12:03:05.666Z,102016.33
2019-01-10T12:05:36.505Z,102009.22
2019-01-10T12:08:06.077Z,102016.31
2019-01-10T12:10:35.669Z,102006.86
2019-01-10T12:13:05.680Z,102005.80
2019-01-10T12:15:35.194Z,101977.97
2019-01-10T12:18:04.949Z,102004.20
2019-01-10T12:20:34.521Z,102006.60
2019-01-10T12:23:04.193Z,101998.78
2019-01-10T12:25:33.775Z,101999.76
2019-01-10T12:28:03.360Z,101998.61
2019-01-10T12:30:32.853Z,101998.22
2019-01-10T12:33:02.341Z,101992.92
2019-01-10T12:35:31.838Z,101996.98
2019-01-10T12:38:01.322Z,101989.63
2019-01-10T12:40:30.841Z,101992.17
2019-01-10T12:43:01.256Z,101984.17
2019-01-10T12:45:30.766Z,101984.62
2019-01-10T12:48:01.657Z,101989.76
2019-01-10T12:50:32.823Z,101990.01
2019-01-10T12:53:06.387Z,101990.86
2019-01-10T12:55:35.921Z,101992.37
2019-01-10T12:58:05.956Z,101997.88
2019-01-10T13:00:36.721Z,101999.13
2019-01-10T13:03:06.545Z,101993.01
2019-01-10T13:05:36.047Z,101994.28
2019-01-10T13:08:05.598Z,101991.27
2019-01-10T13:10:35.088Z,101987.05
2019-01-10T13:13:04.654Z,101996.69
2019-01-10T13:15:34.137Z,101995.10
2019-01-10T13:18:03.634Z,101988.70
2019-01-10T13:20:33.712Z,101991.40
2019-01-10T13:23:03.199Z,101986.11
2019-01-10T13:25:32.687Z,101981.85
2019-01-10T13:28:02.186Z,101984.66
2019-01-10T13:30:31.681Z,101983.48
2019-01-10T13:33:01.188Z,101985.20
2019-01-10T13:35:31.651Z,101982.55
2019-01-10T13:38:01.151Z,101979.82
2019-01-10T13:40:30.649Z,101980.31
2019-01-10T13:43:00.150Z,101988.98
2019-01-10T13:45:29.706Z,101976.60
2019-01-10T13:47:59.571Z,101976.41
2019-01-10T13:50:30.360Z,101963.52
2019-01-10T13:53:00.003Z,101977.28
2019-01-10T13:55:29.573Z,101968.91
2019-01-10T13:57:59.258Z,101968.80
2019-01-10T14:00:35.706Z,101967.59
2019-01-10T14:03:04.148Z,101972.92
2019-01-10T14:05:34.591Z,101974.16
2019-01-10T14:08:04.278Z,101973.80
2019-01-10T14:10:33.753Z,101976.69
2019-01-10T14:13:03.241Z,101975.00
2019-01-10T14:15:34.422Z,101975.69
2019-01-10T14:18:04.633Z,101978.83
2019-01-10T14:20:34.270Z,101973.38
2019-01-10T14:23:04.081Z,101976.44
2019-01-10T14:25:33.642Z,101972.22
2019-01-10T14:28:03.152Z,101966.23
2019-01-10T14:30:40.950Z,101965.87
2019-01-10T14:33:14.416Z,101964.99
2019-01-10T14:35:44.074Z,101965.39
2019-01-10T14:38:13.874Z,101983.49
2019-01-10T14:40:43.354Z,101980.25
2019-01-10T14:43:13.010Z,101928.39
2019-01-10T14:45:44.471Z,101980.25
2019-01-10T14:48:13.969Z,101982.06
2019-01-10T14:50:43.471Z,101982.20
2019-01-10T14:53:13.036Z,101990.52
2019-01-10T14:55:42.610Z,101989.84
2019-01-10T14:58:12.277Z,101984.90
2019-01-10T15:00:41.758Z,101988.70
2019-01-10T15:03:11.267Z,101991.36
2019-01-10T15:05:40.745Z,101989.48
2019-01-10T15:08:10.236Z,101995.08
2019-01-10T15:10:39.723Z,101992.52
2019-01-10T15:13:09.250Z,101986.86
2019-01-10T15:15:38.741Z,101992.39
2019-01-10T15:18:08.321Z,101997.17
2019-01-10T15:20:37.938Z,101992.88
2019-01-10T15:23:07.717Z,101997.46
2019-01-10T15:25:37.270Z,102003.64
2019-01-10T15:28:06.868Z,101995.19
2019-01-10T15:30:36.477Z,101994.19
2019-01-10T15:33:05.955Z,101995.80
2019-01-10T15:35:35.458Z,101997.98
2019-01-10T15:38:05.165Z,101992.69
2019-01-10T15:40:34.836Z,101995.22
2019-01-10T15:43:06.358Z,101994.02
2019-01-10T15:45:35.856Z,101988.45
2019-01-10T15:48:05.815Z,101992.52
2019-01-10T15:50:35.415Z,101988.74
2019-01-10T15:53:05.073Z,101984.16
2019-01-10T15:55:34.734Z,101991.18
2019-01-10T15:58:04.281Z,101984.27
2019-01-10T16:00:33.793Z,101989.33
2019-01-10T16:03:03.277Z,101987.80
2019-01-10T16:05:32.781Z,101988.50
2019-01-10T16:08:02.333Z,101988.98
2019-01-10T16:10:31.874Z,101987.17
2019-01-10T16:13:01.441Z,101984.53
2019-01-10T16:15:30.961Z,101983.99
2019-01-10T16:18:00.464Z,101981.09
2019-01-10T16:20:29.959Z,101984.41
2019-01-10T16:22:59.470Z,101983.35
2019-01-10T16:25:28.977Z,101981.59
2019-01-10T16:27:58.485Z,101991.45
2019-01-10T16:30:31.055Z,101993.94
2019-01-10T16:33:00.558Z,101995.63
2019-01-10T16:35:30.128Z,101991.02
2019-01-10T16:37:59.634Z,101987.83
2019-01-10T16:40:29.435Z,101991.35
2019-01-10T16:42:58.930Z,101936.06
2019-01-10T16:45:34.328Z,101990.38
2019-01-10T16:48:03.973Z,101991.35
2019-01-10T16:50:34.442Z,101993.02
2019-01-10T16:53:03.997Z,101988.16
2019-01-10T16:55:34.141Z,101981.13
2019-01-10T16:58:03.959Z,101983.78
2019-01-10T17:00:34.410Z,101984.59
2019-01-10T17:03:04.109Z,101983.61
2019-01-10T17:05:33.848Z,101982.45
2019-01-10T17:08:03.414Z,101985.75
2019-01-10T17:10:33.003Z,101976.18
2019-01-10T17:13:02.491Z,101975.50
2019-01-10T17:15:31.985Z,101974.28
2019-01-10T17:18:02.063Z,101971.57
2019-01-10T17:20:31.730Z,101969.30
2019-01-10T17:23:01.321Z,101969.58
2019-01-10T17:25:30.817Z,101977.27
2019-01-10T17:28:00.313Z,101979.63
2019-01-10T17:30:30.850Z,101978.75
2019-01-10T17:33:01.279Z,101982.00
2019-01-10T17:35:32.950Z,101980.27
2019-01-10T17:38:03.157Z,101981.84
2019-01-10T17:40:32.735Z,101989.37
2019-01-10T17:43:02.962Z,101990.23
2019-01-10T17:45:34.411Z,101980.52
2019-01-10T17:48:06.141Z,101986.59
2019-01-10T17:50:35.659Z,101980.53
2019-01-10T17:53:05.227Z,101978.97
2019-01-10T17:55:34.741Z,101981.24
2019-01-10T17:58:04.891Z,101990.59
2019-01-10T18:00:34.390Z,101984.84
2019-01-10T18:03:04.289Z,101981.05
2019-01-10T18:05:33.833Z,101980.02
2019-01-10T18:08:03.320Z,101979.88
2019-01-10T18:10:32.799Z,101986.92
2019-01-10T18:13:02.326Z,101981.61
2019-01-10T18:15:31.907Z,101984.14
2019-01-10T18:18:01.432Z,101977.20
2019-01-10T18:20:36.409Z,101964.92
2019-01-10T18:23:06.143Z,101977.61
2019-01-10T18:25:35.639Z,101972.64
2019-01-10T18:28:05.422Z,101978.48
2019-01-10T18:30:35.864Z,101973.35
2019-01-10T18:33:05.509Z,101956.47
2019-01-10T18:35:35.347Z,101972.63
2019-01-10T18:38:04.864Z,101969.72
2019-01-10T18:40:34.436Z,101965.16
2019-01-10T18:43:04.023Z,101972.11
2019-01-10T18:45:34.299Z,101969.10
2019-01-10T18:48:03.967Z,101963.43
2019-01-10T18:50:33.530Z,101970.35
2019-01-10T18:53:03.066Z,101966.66
2019-01-10T18:55:32.560Z,101970.33
2019-01-10T18:58:02.070Z,101969.98
2019-01-10T19:00:32.118Z,101971.14
2019-01-10T19:03:01.936Z,101972.23
2019-01-10T19:05:31.813Z,101969.71
2019-01-10T19:08:01.413Z,101960.75
2019-01-10T19:10:30.973Z,101963.07
2019-01-10T19:13:00.529Z,101960.41
2019-01-10T19:15:30.026Z,101967.88
2019-01-10T19:18:03.345Z,101964.45
2019-01-10T19:20:30.788Z,101972.60
2019-01-10T19:23:01.685Z,101969.16
2019-01-10T19:25:31.462Z,101971.02
2019-01-10T19:28:00.976Z,101972.73
2019-01-10T19:30:32.690Z,101965.38
2019-01-10T19:33:02.192Z,101963.85
2019-01-10T19:35:32.372Z,101972.36
2019-01-10T19:38:01.847Z,101933.11
2019-01-10T19:40:31.414Z,101976.05
2019-01-10T19:43:00.925Z,101979.34
2019-01-10T19:45:30.419Z,101976.05
2019-01-10T19:48:00.064Z,101982.80
2019-01-10T19:50:29.548Z,101976.56
2019-01-10T19:52:59.121Z,101987.86
2019-01-10T19:55:28.799Z,101982.42
2019-01-10T19:57:58.318Z,101988.37
2019-01-10T20:00:30.552Z,101987.41
2019-01-10T20:03:01.115Z,101990.11
2019-01-10T20:05:30.624Z,101984.89
2019-01-10T20:08:00.462Z,101982.48
2019-01-10T20:10:30.002Z,101965.52
2019-01-10T20:12:59.499Z,101977.94
2019-01-10T20:15:29.102Z,101984.38
2019-01-10T20:17:58.969Z,101985.80
2019-01-10T20:20:34.037Z,101989.39
2019-01-10T20:23:04.505Z,101988.97
2019-01-10T20:25:34.689Z,101993.62
2019-01-10T20:28:04.696Z,101998.69
2019-01-10T20:30:34.261Z,101998.00
2019-01-10T20:33:03.839Z,101998.16
2019-01-10T20:35:33.342Z,102000.11
2019-01-10T20:38:02.916Z,102008.09
2019-01-10T20:40:32.407Z,101998.95
2019-01-10T20:43:02.009Z,101994.39
2019-01-10T20:45:31.522Z,102000.13
2019-01-10T20:48:01.097Z,101995.48
2019-01-10T20:50:30.710Z,101998.03
2019-01-10T20:53:00.222Z,101997.47
2019-01-10T20:55:29.748Z,101989.39
2019-01-10T20:57:59.273Z,101992.58
2019-01-10T21:00:29.726Z,101985.77
2019-01-10T21:02:59.247Z,101983.13
2019-01-10T21:05:28.747Z,101982.01
2019-01-10T21:07:58.257Z,101980.36
2019-01-10T21:10:28.234Z,101981.73
2019-01-10T21:12:57.737Z,101965.95
2019-01-10T21:15:29.809Z,101971.00
2019-01-10T21:17:59.301Z,101968.56
2019-01-10T21:20:28.788Z,101968.38
2019-01-10T21:22:59.366Z,101975.30
2019-01-10T21:25:29.117Z,101972.18
2019-01-10T21:27:59.572Z,101962.92
2019-01-10T21:30:29.072Z,101960.20
2019-01-10T21:32:58.582Z,101956.98
2019-01-10T21:35:28.071Z,101957.38
2019-01-10T21:37:57.577Z,101953.49
2019-01-10T21:40:28.477Z,101947.78
2019-01-10T21:42:57.997Z,101952.92
2019-01-10T21:45:27.569Z,101951.56
2019-01-10T21:47:57.135Z,101948.42
2019-01-10T21:50:27.457Z,101948.23
2019-01-10T21:52:56.948Z,101949.33
2019-01-10T21:55:26.737Z,101953.41
2019-01-10T21:57:57.903Z,101956.41
2019-01-10T22:00:29.609Z,101958.27
2019-01-10T22:03:00.222Z,101956.79
2019-01-10T22:05:29.878Z,101960.97
2019-01-10T22:07:59.387Z,101960.78
2019-01-10T22:10:29.168Z,101963.33
2019-01-10T22:13:00.536Z,101956.53
2019-01-10T22:15:30.105Z,101960.52
2019-01-10T22:17:59.651Z,101948.16
2019-01-10T22:20:29.223Z,101950.67
2019-01-10T22:22:58.699Z,101952.81
2019-01-10T22:25:28.191Z,101948.63
2019-01-10T22:27:57.977Z,101947.75
2019-01-10T22:30:28.139Z,101948.31
2019-01-10T22:32:57.719Z,101942.29
2019-01-10T22:35:27.284Z,101937.91
2019-01-10T22:37:56.830Z,101936.08
2019-01-10T22:40:26.326Z,101939.59
2019-01-10T22:42:55.905Z,101935.50
2019-01-10T22:45:25.488Z,101931.52
2019-01-10T22:47:55.106Z,101933.64
2019-01-10T22:50:24.788Z,101929.77
2019-01-10T22:52:54.303Z,101922.75
2019-01-10T22:55:23.796Z,101922.44
2019-01-10T22:57:53.295Z,101921.39
2019-01-10T23:01:12.389Z,101913.80
2019-01-10T23:03:43.384Z,101920.81
2019-01-10T23:06:13.033Z,101907.70
2019-01-10T23:08:43.903Z,101913.59
2019-01-10T23:11:21.727Z,101904.28
2019-01-10T23:13:58.492Z,101907.31
2019-01-10T23:16:28.360Z,101912.92
2019-01-10T23:18:57.844Z,101903.90
2019-01-10T23:21:28.388Z,101897.00
2019-01-10T23:24:01.510Z,101896.02
2019-01-10T23:26:31.073Z,101888.94
2019-01-10T23:29:00.575Z,101886.11
2019-01-10T23:31:31.063Z,101885.84
2019-01-10T23:34:08.769Z,101883.88
2019-01-10T23:36:38.410Z,101874.47
2019-01-10T23:39:19.339Z,101870.87
2019-01-10T23:41:49.732Z,101857.04
2019-01-10T23:44:19.341Z,101870.09
2019-01-10T23:46:48.960Z,101875.44
2019-01-10T23:49:18.456Z,101867.08
2019-01-10T23:51:48.674Z,101864.45
2019-01-10T23:54:18.853Z,101844.23
2019-01-10T23:56:48.376Z,101868.52
2019-01-10T23:59:17.859Z,101867.16
